Metar z połowy godziny Komunikat METAR ze strony awiacja.imgw.pl Metar Mil EPRA METAR EPRA 271430Z 23004KT 9999 BKN017 02/M01 Q0997 RMK 021 082 6/6=